Time;durP1;ratioP1;P1;durP2;ratioP2;P2;SDS_P1;SDS_P2;PMS_P1;PMS_P2;Temp;Humidity;BMP_temperature;BMP_pressure;BME280_temperature;BME280_humidity;BME280_pressure;Samples;Min_cycle;Max_cycle;Signal;HPM_P1;HPM_P2
2021/12/31 00:01:12;;;;;;;35.30;21.97;;;;;;;6.35;100.00;100228.99;1705735;83;25676;-80
2021/12/31 00:03:38;;;;;;;35.40;22.07;;;;;;;6.37;100.00;100230.17;1712220;82;25807;-80
2021/12/31 00:06:06;;;;;;;42.53;23.07;;;;;;;6.40;100.00;100221.34;1738273;82;25943;-80
2021/12/31 00:08:32;;;;;;;39.05;23.15;;;;;;;6.44;100.00;100225.81;1727243;82;27549;-81
2021/12/31 00:10:59;;;;;;;41.10;24.15;;;;;;;6.44;100.00;100227.98;1693963;84;26147;-81
2021/12/31 00:13:30;;;;;;;38.23;23.25;;;;;;;6.47;100.00;100225.50;1656921;83;25817;-80
2021/12/31 00:15:57;;;;;;;37.65;22.77;;;;;;;6.48;100.00;100229.30;1664282;85;26268;-80
2021/12/31 00:18:23;;;;;;;37.58;21.75;;;;;;;6.52;100.00;100232.48;1695713;84;25393;-80
2021/12/31 00:20:49;;;;;;;38.20;22.15;;;;;;;6.55;100.00;100232.12;1695122;84;27456;-80
2021/12/31 00:23:18;;;;;;;40.78;22.02;;;;;;;6.58;100.00;100225.14;1661854;84;25971;-81
2021/12/31 00:25:44;;;;;;;37.03;22.50;;;;;;;6.61;100.00;100217.64;1682502;84;26662;-80
2021/12/31 00:28:11;;;;;;;34.45;20.57;;;;;;;6.64;100.00;100221.30;1678470;84;26119;-80
2021/12/31 00:30:39;;;;;;;33.90;19.45;;;;;;;6.69;100.00;100227.45;1685949;84;25788;-81
2021/12/31 00:33:08;;;;;;;31.27;18.95;;;;;;;6.71;100.00;100226.28;1733607;82;27470;-81
2021/12/31 00:35:37;;;;;;;32.15;18.70;;;;;;;6.75;100.00;100225.42;1724314;82;25330;-80
2021/12/31 00:38:03;;;;;;;33.70;19.05;;;;;;;6.78;100.00;100229.90;1734522;82;26537;-80
2021/12/31 00:40:30;;;;;;;30.05;17.92;;;;;;;6.81;100.00;100230.90;1740746;82;26275;-79
2021/12/31 00:42:57;;;;;;;30.15;17.57;;;;;;;6.84;100.00;100229.20;1734311;82;25829;-80
2021/12/31 00:45:26;;;;;;;28.62;17.75;;;;;;;6.87;100.00;100233.36;1724209;82;27480;-81
2021/12/31 00:47:53;;;;;;;30.95;18.70;;;;;;;6.89;100.00;100241.52;1721662;82;26470;-80
2021/12/31 00:50:22;;;;;;;30.68;18.27;;;;;;;6.90;100.00;100247.18;1730087;82;25367;-80
2021/12/31 00:52:48;;;;;;;32.23;19.00;;;;;;;6.92;100.00;100251.00;1711975;82;26106;-80
2021/12/31 00:55:15;;;;;;;32.55;19.27;;;;;;;6.92;100.00;100254.50;1721608;82;25914;-80
2021/12/31 00:57:42;;;;;;;31.57;17.77;;;;;;;6.92;100.00;100253.16;1725119;82;27643;-81
2021/12/31 01:00:12;;;;;;;26.17;15.88;;;;;;;6.94;100.00;100250.31;1728355;81;25918;-80
2021/12/31 01:02:39;;;;;;;26.95;17.48;;;;;;;6.95;100.00;100258.62;1730821;81;26500;-80
2021/12/31 01:05:06;;;;;;;25.50;15.85;;;;;;;6.97;100.00;100251.32;1729277;81;25771;-80
2021/12/31 01:07:32;;;;;;;29.35;16.35;;;;;;;6.98;100.00;100251.63;1725551;81;26501;-80
2021/12/31 01:10:01;;;;;;;26.30;16.15;;;;;;;6.99;100.00;100256.78;1729023;81;28207;-80
2021/12/31 01:12:27;;;;;;;28.80;16.73;;;;;;;7.02;100.00;100258.27;1727362;82;25835;-81
2021/12/31 01:15:01;;;;;;;25.00;14.98;;;;;;;7.05;100.00;100249.11;1733419;81;25798;-80
2021/12/31 01:17:52;;;;;;;26.12;16.52;;;;;;;7.07;100.00;100241.78;1728172;81;26216;-79
2021/12/31 01:20:12;;;;;;;26.65;15.35;;;;;;;7.10;100.00;100245.44;1726621;81;25772;-80
2021/12/31 01:22:39;;;;;;;21.50;14.35;;;;;;;7.12;100.00;100234.92;1726312;81;27110;-79
2021/12/31 01:25:07;;;;;;;25.57;16.17;;;;;;;7.13;100.00;100236.59;1738220;81;25784;-79
2021/12/31 01:27:35;;;;;;;20.70;12.75;;;;;;;7.14;100.00;100236.09;1725831;82;25883;-80
2021/12/31 01:30:05;;;;;;;27.52;16.25;;;;;;;7.15;100.00;100236.41;1732280;81;25721;-80
2021/12/31 01:32:31;;;;;;;24.35;14.63;;;;;;;7.17;100.00;100247.72;1725497;82;26467;-80
2021/12/31 01:34:58;;;;;;;28.38;15.50;;;;;;;7.17;100.00;100239.73;1731745;81;28266;-80
2021/12/31 01:37:24;;;;;;;26.93;16.40;;;;;;;7.18;100.00;100244.06;1725317;82;25760;-79
2021/12/31 01:39:51;;;;;;;26.55;15.78;;;;;;;7.19;100.00;100243.88;1725495;82;26122;-81
2021/12/31 01:42:27;;;;;;;26.12;15.90;;;;;;;7.19;100.00;100244.37;1710205;81;25820;-80
2021/12/31 01:44:56;;;;;;;27.45;14.98;;;;;;;7.20;100.00;100245.56;1724512;82;26547;-81
2021/12/31 01:47:17;;;;;;;28.83;15.68;;;;;;;7.21;100.00;100235.71;1725990;81;27478;-80
2021/12/31 01:49:55;;;;;;;26.15;15.20;;;;;;;7.23;100.00;100232.41;1725870;82;25902;-80
2021/12/31 01:52:12;;;;;;;26.87;16.62;;;;;;;7.22;100.00;100231.56;1727207;81;25806;-81
2021/12/31 01:54:38;;;;;;;25.27;14.70;;;;;;;7.24;100.00;100236.70;1726913;82;25893;-80
2021/12/31 01:57:08;;;;;;;26.68;15.90;;;;;;;7.24;100.00;100244.20;1723147;82;26201;-79
2021/12/31 01:59:38;;;;;;;25.92;16.00;;;;;;;7.25;100.00;100244.52;1720379;82;27457;-81
2021/12/31 02:02:06;;;;;;;22.67;13.53;;;;;;;7.27;100.00;100239.04;1720506;82;25801;-80
2021/12/31 02:04:34;;;;;;;22.93;14.47;;;;;;;7.27;100.00;100238.51;1716649;83;25809;-80
2021/12/31 02:07:00;;;;;;;25.25;14.38;;;;;;;7.27;100.00;100243.03;1716497;83;26654;-81
2021/12/31 02:09:27;;;;;;;26.40;14.70;;;;;;;7.27;100.00;100252.36;1718035;82;26618;-80
2021/12/31 02:11:55;;;;;;;24.65;14.38;;;;;;;7.27;100.00;100247.03;1718056;82;27484;-80
2021/12/31 02:14:24;;;;;;;26.82;13.98;;;;;;;7.27;100.00;100246.50;1720083;82;25899;-81
2021/12/31 02:16:51;;;;;;;22.52;12.80;;;;;;;7.28;100.00;100250.00;1716421;83;25775;-80
2021/12/31 02:19:26;;;;;;;21.85;13.15;;;;;;;7.28;100.00;100253.51;1716136;82;25864;-80
2021/12/31 02:21:46;;;;;;;22.42;14.53;;;;;;;7.29;100.00;100253.81;1723466;82;25808;-83
2021/12/31 02:24:13;;;;;;;24.72;13.72;;;;;;;7.30;100.00;100252.83;1720692;82;28107;-80
2021/12/31 02:26:40;;;;;;;21.15;13.00;;;;;;;7.31;100.00;100248.34;1720221;82;26520;-80
2021/12/31 02:29:06;;;;;;;26.65;14.35;;;;;;;7.31;100.00;100245.18;1720768;82;25933;-80
2021/12/31 02:31:32;;;;;;;25.65;14.35;;;;;;;7.32;100.00;100241.49;1728779;82;25795;-80
2021/12/31 02:33:59;;;;;;;23.50;13.48;;;;;;;7.32;100.00;100241.98;1716167;82;26551;-80
2021/12/31 02:36:25;;;;;;;20.77;13.53;;;;;;;7.33;100.00;100253.83;1724323;82;27502;-81
2021/12/31 02:38:51;;;;;;;23.65;15.88;;;;;;;7.32;100.00;100262.81;1720377;82;25761;-81
2021/12/31 02:41:17;;;;;;;26.55;15.25;;;;;;;7.35;100.00;100274.95;1732069;82;25855;-81
2021/12/31 02:43:43;;;;;;;25.17;15.32;;;;;;;7.36;100.00;100276.11;1725087;81;25748;-81
2021/12/31 02:46:10;;;;;;;24.70;16.30;;;;;;;7.36;100.00;100266.78;1720723;82;25953;-81
2021/12/31 02:48:36;;;;;;;23.07;13.68;;;;;;;7.37;100.00;100263.13;1719093;82;27438;-80
2021/12/31 02:51:03;;;;;;;24.45;13.80;;;;;;;7.38;100.00;100259.94;1717017;82;26741;-80
2021/12/31 02:53:39;;;;;;;24.35;14.63;;;;;;;7.37;100.00;100265.80;1723836;81;25776;-80
2021/12/31 02:56:11;;;;;;;25.25;15.15;;;;;;;7.36;100.00;100264.11;1716646;83;25831;-81
2021/12/31 02:58:40;;;;;;;26.37;14.75;;;;;;;7.35;100.00;100266.47;1730119;81;25862;-80
2021/12/31 03:01:08;;;;;;;26.07;15.93;;;;;;;7.34;100.00;100270.13;1728878;81;27432;-80
2021/12/31 03:03:36;;;;;;;27.35;15.45;;;;;;;7.34;100.00;100268.79;1735258;81;25779;-80
2021/12/31 03:06:03;;;;;;;28.92;16.45;;;;;;;7.35;100.00;100275.80;1728415;81;25762;-80
2021/12/31 03:08:37;;;;;;;25.15;15.60;;;;;;;7.36;100.00;100280.10;1728009;81;26236;-80
2021/12/31 03:11:06;;;;;;;26.15;16.82;;;;;;;7.37;100.00;100272.45;1703896;83;25907;-80
2021/12/31 03:13:35;;;;;;;27.87;15.78;;;;;;;7.40;100.00;100276.61;1728122;81;27851;-81
2021/12/31 03:16:02;;;;;;;25.23;15.32;;;;;;;7.40;100.00;100266.75;1728080;81;25926;-80
2021/12/31 03:18:29;;;;;;;24.85;15.60;;;;;;;7.43;100.00;100275.75;1724683;83;25907;-80
2021/12/31 03:21:08;;;;;;;26.93;15.65;;;;;;;7.46;100.00;100274.57;1724399;82;25759;-79
2021/12/31 03:23:30;;;;;;;25.72;15.43;;;;;;;7.47;100.00;100281.55;1730718;81;25815;-80
2021/12/31 03:25:57;;;;;;;25.90;15.20;;;;;;;7.50;100.00;100279.38;1725344;83;27489;-80
2021/12/31 03:28:24;;;;;;;26.25;15.08;;;;;;;7.52;100.00;100277.87;1729004;81;25827;-81
2021/12/31 03:30:51;;;;;;;30.25;15.98;;;;;;;7.55;100.00;100265.50;1704967;81;26572;-80
2021/12/31 03:33:18;;;;;;;28.27;14.83;;;;;;;7.57;100.00;100261.66;1731022;81;26246;-80
2021/12/31 03:35:44;;;;;;;25.40;14.33;;;;;;;7.60;100.00;100261.33;1725212;83;25768;-80
2021/12/31 03:38:12;;;;;;;27.40;14.83;;;;;;;7.64;100.00;100255.97;1727970;81;27516;-79
2021/12/31 03:40:39;;;;;;;30.05;15.10;;;;;;;7.67;100.00;100258.30;1736062;81;26460;-80
2021/12/31 03:43:08;;;;;;;23.12;12.80;;;;;;;7.70;100.00;100258.42;1727772;81;25807;-80
2021/12/31 03:45:38;;;;;;;25.52;13.72;;;;;;;7.72;100.00;100259.07;1725105;81;25788;-81
2021/12/31 03:48:04;;;;;;;20.20;11.67;;;;;;;7.75;100.00;100260.06;1732298;81;25955;-81
2021/12/31 03:50:31;;;;;;;18.92;11.83;;;;;;;7.78;100.00;100261.05;1728181;81;27515;-80
2021/12/31 03:52:57;;;;;;;20.12;11.53;;;;;;;7.79;100.00;100254.70;1723716;83;25799;-80
2021/12/31 03:55:23;;;;;;;19.75;11.70;;;;;;;7.82;100.00;100265.52;1739538;81;26474;-80
2021/12/31 03:57:49;;;;;;;19.82;12.40;;;;;;;7.85;100.00;100269.17;1712075;81;25896;-81
2021/12/31 04:00:16;;;;;;;19.40;11.57;;;;;;;7.86;100.00;100260.16;1725384;81;25812;-81
2021/12/31 04:02:43;;;;;;;20.80;12.40;;;;;;;7.90;100.00;100262.79;1730573;81;27456;-80
2021/12/31 04:05:10;;;;;;;19.42;12.33;;;;;;;7.90;100.00;100263.63;1728784;81;25856;-79
2021/12/31 04:07:36;;;;;;;26.05;13.20;;;;;;;7.92;100.00;100266.95;1738981;81;26247;-80
2021/12/31 04:10:04;;;;;;;20.77;13.28;;;;;;;7.95;100.00;100263.09;1734557;81;26233;-81
2021/12/31 04:12:30;;;;;;;23.55;14.10;;;;;;;7.97;100.00;100271.75;1730308;81;25818;-80
2021/12/31 04:14:56;;;;;;;27.30;14.60;;;;;;;7.99;100.00;100272.40;1727518;81;28771;-80
2021/12/31 04:17:23;;;;;;;26.73;14.65;;;;;;;8.02;100.00;100274.19;1731629;81;25898;-80
2021/12/31 04:19:54;;;;;;;26.82;13.68;;;;;;;8.02;100.00;100274.19;1728136;81;25859;-80
2021/12/31 04:22:20;;;;;;;38.85;20.20;;;;;;;8.04;100.00;100285.52;1738963;81;26317;-79
2021/12/31 04:27:12;;;;;;;37.23;16.57;;;;;;;8.07;100.00;100268.33;1735715;81;28083;-81
2021/12/31 04:29:39;;;;;;;31.45;16.97;;;;;;;8.07;100.00;100265.16;1731711;81;26568;-80
2021/12/31 04:32:06;;;;;;;36.10;15.85;;;;;;;8.09;100.00;100263.14;1727859;81;25812;-80
2021/12/31 04:34:33;;;;;;;32.23;17.25;;;;;;;8.10;100.00;100261.31;1724525;83;26060;-80
2021/12/31 04:36:59;;;;;;;28.57;15.88;;;;;;;8.11;100.00;100262.46;1724070;83;25775;-80
2021/12/31 04:39:26;;;;;;;30.00;13.53;;;;;;;8.13;100.00;100260.94;1724541;82;28245;-81
2021/12/31 04:41:52;;;;;;;31.10;17.20;;;;;;;8.12;100.00;100266.80;1724808;82;25912;-81
2021/12/31 04:44:18;;;;;;;31.45;19.17;;;;;;;8.13;100.00;100261.78;1729223;81;25972;-80
2021/12/31 04:46:44;;;;;;;34.80;18.25;;;;;;;8.16;100.00;100269.93;1730784;81;25863;-81
2021/12/31 04:49:10;;;;;;;29.45;19.90;;;;;;;8.18;100.00;100266.58;1735252;81;25883;-79
2021/12/31 04:51:37;;;;;;;29.27;18.32;;;;;;;8.18;100.00;100267.41;1733158;81;28227;-80
2021/12/31 04:54:03;;;;;;;25.35;17.02;;;;;;;8.20;100.00;100266.73;1724134;82;26495;-81
2021/12/31 04:56:29;;;;;;;23.40;15.28;;;;;;;8.22;100.00;100263.87;1728567;81;25830;-80
2021/12/31 04:58:55;;;;;;;23.40;14.85;;;;;;;8.20;100.00;100264.06;1731210;81;25994;-81
2021/12/31 05:01:21;;;;;;;23.62;14.35;;;;;;;8.20;100.00;100258.72;1728980;81;26260;-81
2021/12/31 05:03:48;;;;;;;22.67;15.25;;;;;;;8.21;100.00;100250.23;1722713;81;27460;-81
2021/12/31 05:06:15;;;;;;;22.02;15.43;;;;;;;8.21;100.00;100255.03;1722378;81;26608;-80
2021/12/31 05:08:42;;;;;;;22.02;14.15;;;;;;;8.22;100.00;100248.70;1733142;81;26559;-81
2021/12/31 05:11:09;;;;;;;23.27;14.90;;;;;;;8.24;100.00;100245.34;1724859;81;25877;-81
2021/12/31 05:13:35;;;;;;;22.62;13.93;;;;;;;8.26;100.00;100250.52;1740463;81;25990;-81
2021/12/31 05:16:04;;;;;;;23.57;13.05;;;;;;;8.26;100.00;100246.02;1729678;81;28759;-81
2021/12/31 05:18:30;;;;;;;19.82;13.75;;;;;;;8.29;100.00;100246.17;1720964;82;25987;-80
2021/12/31 05:20:58;;;;;;;20.20;13.72;;;;;;;8.30;100.00;100251.32;1737657;81;25767;-80
2021/12/31 05:23:25;;;;;;;19.65;13.53;;;;;;;8.31;100.00;100246.83;1720873;83;25780;-81
2021/12/31 05:25:52;;;;;;;20.20;13.95;;;;;;;8.31;100.00;100247.66;1721524;83;25932;-81
2021/12/31 05:28:18;;;;;;;20.77;13.95;;;;;;;8.33;100.00;100246.13;1728980;81;27617;-80
2021/12/31 05:30:44;;;;;;;20.57;13.58;;;;;;;8.35;100.00;100248.12;1721660;81;25895;-80
2021/12/31 05:33:10;;;;;;;19.45;12.25;;;;;;;8.36;100.00;100247.13;1725257;81;26425;-81
2021/12/31 05:35:37;;;;;;;18.42;12.68;;;;;;;8.36;100.00;100249.26;1724265;81;25974;-81
2021/12/31 05:38:03;;;;;;;19.00;13.78;;;;;;;8.39;100.00;100249.41;1732717;81;25814;-81
2021/12/31 05:40:29;;;;;;;17.50;11.03;;;;;;;8.37;100.00;100244.76;1727480;81;27479;-81
2021/12/31 05:42:55;;;;;;;16.07;11.53;;;;;;;8.39;100.00;100240.06;1725054;81;26625;-79
2021/12/31 05:45:21;;;;;;;16.50;11.88;;;;;;;8.39;100.00;100242.73;1728112;81;25918;-81
2021/12/31 05:47:48;;;;;;;16.30;10.45;;;;;;;8.39;100.00;100234.23;1731126;81;26121;-80
2021/12/31 05:50:27;;;;;;;16.27;11.10;;;;;;;8.43;100.00;100241.36;1727566;81;25907;-82
2021/12/31 05:52:46;;;;;;;19.67;11.15;;;;;;;8.45;100.00;100249.52;1724302;81;27477;-80
2021/12/31 05:55:13;;;;;;;14.18;10.72;;;;;;;8.47;100.00;100251.99;1725430;81;25330;-81
2021/12/31 05:57:39;;;;;;;14.33;10.68;;;;;;;8.48;100.00;100252.33;1729587;81;25728;-81
2021/12/31 06:00:06;;;;;;;15.28;10.75;;;;;;;8.49;100.00;100254.81;1729312;81;25770;-81
2021/12/31 06:02:33;;;;;;;15.18;10.85;;;;;;;8.51;100.00;100250.12;1736547;81;25848;-80
2021/12/31 06:04:59;;;;;;;14.15;10.40;;;;;;;8.52;100.00;100246.45;1731324;81;27462;-81
2021/12/31 06:07:25;;;;;;;15.98;11.57;;;;;;;8.53;100.00;100245.42;1732457;81;25912;-80
2021/12/31 06:09:51;;;;;;;15.35;9.95;;;;;;;8.55;100.00;100242.59;1729569;81;25896;-81
2021/12/31 06:12:18;;;;;;;13.90;9.18;;;;;;;8.58;100.00;100241.38;1724143;82;25519;-80
2021/12/31 06:14:45;;;;;;;13.90;10.60;;;;;;;8.60;100.00;100252.20;1729020;81;26061;-81
2021/12/31 06:17:11;;;;;;;14.85;11.25;;;;;;;8.62;100.00;100241.36;1744825;81;27441;-80
2021/12/31 06:19:39;;;;;;;14.58;10.78;;;;;;;8.64;100.00;100253.49;1727128;81;25964;-80
2021/12/31 06:22:05;;;;;;;15.40;11.68;;;;;;;8.66;100.00;100251.47;1728746;81;26035;-80
2021/12/31 06:24:31;;;;;;;15.18;12.13;;;;;;;8.68;100.00;100255.31;1724425;82;26213;-80
2021/12/31 06:26:57;;;;;;;12.60;10.95;;;;;;;8.71;100.00;100256.27;1729465;81;25954;-81
2021/12/31 06:29:23;;;;;;;17.17;10.80;;;;;;;8.73;100.00;100252.90;1725592;82;27457;-80
2021/12/31 06:31:50;;;;;;;12.07;8.95;;;;;;;8.74;100.00;100253.23;1726595;82;25846;-81
2021/12/31 06:34:16;;;;;;;13.80;10.48;;;;;;;8.77;100.00;100259.03;1731460;81;26519;-81
2021/12/31 06:36:42;;;;;;;14.00;10.13;;;;;;;8.78;100.00;100255.36;1725129;82;26305;-80
2021/12/31 06:39:09;;;;;;;13.95;8.80;;;;;;;8.80;100.00;100259.17;1728897;81;25839;-82
2021/12/31 06:41:35;;;;;;;15.85;9.73;;;;;;;8.83;100.00;100260.16;1728335;81;27448;-80
2021/12/31 06:44:01;;;;;;;12.98;9.40;;;;;;;8.85;100.00;100262.97;1728859;81;26005;-80
2021/12/31 06:46:27;;;;;;;13.53;9.18;;;;;;;8.86;100.00;100255.27;1726292;82;25778;-80
2021/12/31 06:48:53;;;;;;;10.58;8.35;;;;;;;8.87;100.00;100256.94;1728899;81;26240;-80
2021/12/31 06:51:19;;;;;;;11.53;8.43;;;;;;;8.90;100.00;100261.89;1725718;82;25785;-80
2021/12/31 06:53:46;;;;;;;12.88;9.65;;;;;;;8.91;100.00;100259.56;1727421;82;27465;-80
2021/12/31 06:56:12;;;;;;;11.05;8.98;;;;;;;8.93;100.00;100253.53;1727054;82;25877;-80
2021/12/31 06:58:38;;;;;;;13.95;10.53;;;;;;;8.95;100.00;100252.83;1728966;81;25830;-80
2021/12/31 07:01:05;;;;;;;9.70;7.65;;;;;;;8.99;100.00;100255.95;1728611;81;25913;-80
2021/12/31 07:03:31;;;;;;;11.20;9.90;;;;;;;9.01;100.00;100253.42;1728822;81;25958;-80
2021/12/31 07:05:58;;;;;;;11.00;8.35;;;;;;;9.05;100.00;100259.22;1728770;81;27157;-81
2021/12/31 07:08:24;;;;;;;11.90;9.73;;;;;;;9.05;100.00;100262.72;1725262;82;25540;-81
2021/12/31 07:10:51;;;;;;;9.38;7.75;;;;;;;9.07;100.00;100260.69;1725392;82;25914;-81
2021/12/31 07:13:17;;;;;;;8.85;7.33;;;;;;;9.09;100.00;100260.50;1735727;81;26008;-80
2021/12/31 07:15:48;;;;;;;11.50;9.83;;;;;;;9.10;100.00;100267.02;1726265;82;25947;-80
2021/12/31 07:18:20;;;;;;;11.83;9.45;;;;;;;9.11;100.00;100263.31;1743821;81;27454;-82
2021/12/31 07:20:47;;;;;;;14.75;12.47;;;;;;;9.14;100.00;100262.95;1725545;81;26487;-80
2021/12/31 07:23:17;;;;;;;16.85;13.90;;;;;;;9.16;100.00;100260.09;1727660;81;25807;-79
2021/12/31 07:25:43;;;;;;;16.37;14.58;;;;;;;9.17;100.00;100261.76;1739294;81;25902;-80
2021/12/31 07:28:12;;;;;;;24.85;22.32;;;;;;;9.18;100.00;100272.25;1727060;81;26402;-81
2021/12/31 07:30:39;;;;;;;22.20;19.23;;;;;;;9.19;100.00;100267.25;1715100;81;28346;-79
2021/12/31 07:33:06;;;;;;;17.27;14.33;;;;;;;9.20;100.00;100272.89;1727036;81;25969;-80
2021/12/31 07:35:32;;;;;;;17.37;14.20;;;;;;;9.21;100.00;100277.74;1729857;81;25828;-81
2021/12/31 07:38:00;;;;;;;19.75;16.48;;;;;;;9.21;100.00;100272.39;1737010;81;25717;-79
2021/12/31 07:40:39;;;;;;;16.15;13.22;;;;;;;9.22;100.00;100272.20;1731383;81;25976;-81
2021/12/31 07:43:01;;;;;;;15.05;11.53;;;;;;;9.22;100.00;100270.03;1724867;81;27476;-81
2021/12/31 07:45:27;;;;;;;15.78;11.55;;;;;;;9.21;100.00;100274.56;1738709;81;25732;-80
2021/12/31 07:47:53;;;;;;;14.10;11.05;;;;;;;9.25;100.00;100272.34;1724474;82;25811;-79
2021/12/31 07:50:20;;;;;;;14.85;11.10;;;;;;;9.25;100.00;100271.84;1731995;81;25655;-81
2021/12/31 07:52:46;;;;;;;15.30;12.63;;;;;;;9.26;100.00;100268.14;1727614;81;25778;-80
2021/12/31 07:55:12;;;;;;;19.02;12.65;;;;;;;9.28;100.00;100267.45;1732515;81;27479;-80
2021/12/31 07:57:38;;;;;;;15.00;11.57;;;;;;;9.29;100.00;100266.94;1728733;81;25901;-80
2021/12/31 08:00:08;;;;;;;15.90;11.88;;;;;;;9.31;100.00;100264.91;1724424;83;25820;-79
2021/12/31 08:02:36;;;;;;;16.97;12.50;;;;;;;9.31;100.00;100263.58;1723523;83;25842;-81
2021/12/31 08:05:03;;;;;;;16.45;12.93;;;;;;;9.33;100.00;100261.05;1732724;81;25996;-81
2021/12/31 08:07:29;;;;;;;13.55;10.45;;;;;;;9.33;100.00;100259.70;1726859;81;27456;-80
2021/12/31 08:09:56;;;;;;;15.15;11.85;;;;;;;9.36;100.00;100263.02;1735764;81;26249;-81
2021/12/31 08:12:23;;;;;;;13.70;10.45;;;;;;;9.36;100.00;100261.18;1728042;81;26557;-82
2021/12/31 08:14:49;;;;;;;16.35;12.13;;;;;;;9.38;100.00;100257.81;1724870;82;26397;-79
2021/12/31 08:17:16;;;;;;;13.88;10.28;;;;;;;9.39;100.00;100262.12;1725092;83;25838;-81
2021/12/31 08:19:42;;;;;;;13.50;10.70;;;;;;;9.42;100.00;100264.44;1728212;81;27469;-80
2021/12/31 08:22:09;;;;;;;12.55;10.65;;;;;;;9.42;100.00;100260.92;1724499;82;25778;-80
2021/12/31 08:24:35;;;;;;;14.30;10.75;;;;;;;9.43;100.00;100259.39;1731680;81;26467;-81
2021/12/31 08:27:01;;;;;;;13.18;11.83;;;;;;;9.45;100.00;100249.88;1724574;83;26027;-81
2021/12/31 08:29:28;;;;;;;11.40;8.75;;;;;;;9.49;100.00;100257.83;1724773;83;25881;-80
2021/12/31 08:31:54;;;;;;;9.80;8.15;;;;;;;9.52;100.00;100253.43;1724496;83;27451;-81
2021/12/31 08:34:20;;;;;;;10.03;7.75;;;;;;;9.55;100.00;100255.74;1732400;81;25874;-80
2021/12/31 08:36:46;;;;;;;8.88;7.72;;;;;;;9.58;100.00;100247.36;1734181;81;25743;-81
2021/12/31 08:39:13;;;;;;;11.22;8.88;;;;;;;9.59;100.00;100247.16;1724637;83;25829;-80
2021/12/31 08:41:40;;;;;;;15.28;10.63;;;;;;;9.62;100.00;100243.28;1728783;81;26250;-80
2021/12/31 08:44:08;;;;;;;9.50;8.03;;;;;;;9.64;100.00;100242.08;1724283;82;27022;-80
2021/12/31 08:46:35;;;;;;;8.73;7.55;;;;;;;9.66;100.00;100248.06;1728807;81;25841;-80
2021/12/31 08:49:02;;;;;;;9.85;6.87;;;;;;;9.68;100.00;100250.55;1731805;81;25800;-79
2021/12/31 08:51:28;;;;;;;10.95;8.08;;;;;;;9.69;100.00;100250.34;1735959;81;26251;-80
2021/12/31 08:53:55;;;;;;;8.90;7.97;;;;;;;9.72;100.00;100238.45;1728110;81;26055;-80
2021/12/31 08:56:22;;;;;;;14.15;10.50;;;;;;;9.73;100.00;100250.28;1725124;82;27435;-80
2021/12/31 08:58:48;;;;;;;11.10;8.80;;;;;;;9.74;100.00;100250.61;1730418;81;25814;-80
2021/12/31 09:01:15;;;;;;;10.40;8.03;;;;;;;9.78;100.00;100249.72;1728563;82;25825;-80
2021/12/31 09:03:41;;;;;;;9.08;7.37;;;;;;;9.79;100.00;100249.55;1720395;82;26474;-79
2021/12/31 09:06:07;;;;;;;11.10;8.25;;;;;;;9.80;100.00;100244.50;1728758;82;25868;-80
2021/12/31 09:08:34;;;;;;;16.27;10.72;;;;;;;9.83;100.00;100240.63;1716153;83;27446;-79
2021/12/31 09:11:02;;;;;;;12.25;8.53;;;;;;;9.84;100.00;100241.76;1716418;83;25375;-80
2021/12/31 09:13:28;;;;;;;8.23;6.80;;;;;;;9.86;100.00;100250.92;1715954;83;25821;-80
2021/12/31 09:15:55;;;;;;;7.83;7.03;;;;;;;9.87;100.00;100257.95;1716155;83;25835;-80
2021/12/31 09:18:22;;;;;;;11.85;8.23;;;;;;;9.87;100.00;100254.77;1724676;82;25919;-80
2021/12/31 09:20:49;;;;;;;10.20;7.30;;;;;;;9.88;100.00;100253.73;1727914;81;27464;-79
2021/12/31 09:23:16;;;;;;;11.28;7.42;;;;;;;9.89;100.00;100256.74;1716111;83;25745;-79
2021/12/31 09:25:42;;;;;;;11.10;8.58;;;;;;;9.91;100.00;100256.04;1716400;82;25832;-80
2021/12/31 09:28:08;;;;;;;10.10;7.70;;;;;;;9.90;100.00;100247.67;1720605;82;25808;-79
2021/12/31 09:30:34;;;;;;;9.38;6.83;;;;;;;9.91;100.00;100242.66;1724619;82;26437;-80
2021/12/31 09:33:01;;;;;;;8.13;7.33;;;;;;;9.93;100.00;100251.83;1716182;83;27605;-79
2021/12/31 09:35:27;;;;;;;15.48;11.35;;;;;;;9.93;100.00;100245.14;1716157;83;25903;-79
2021/12/31 09:37:54;;;;;;;7.97;6.37;;;;;;;9.94;100.00;100247.61;1722812;82;25852;-79
2021/12/31 09:40:20;;;;;;;8.13;7.08;;;;;;;9.96;100.00;100248.78;1719688;82;25624;-79
2021/12/31 09:43:08;;;;;;;7.50;6.37;;;;;;;9.96;100.00;100247.45;1720328;82;25823;-79
2021/12/31 09:45:36;;;;;;;8.15;6.72;;;;;;;9.98;100.00;100244.06;1723454;82;29430;-80
2021/12/31 09:48:07;;;;;;;7.50;6.70;;;;;;;9.97;100.00;100239.22;1686003;83;25867;-79
2021/12/31 09:50:44;;;;;;;8.10;6.55;;;;;;;10.00;100.00;100231.32;1676535;85;25814;-80
2021/12/31 09:53:13;;;;;;;7.25;6.55;;;;;;;10.02;100.00;100228.78;1647767;84;25924;-79
2021/12/31 09:55:44;;;;;;;8.90;6.78;;;;;;;10.04;100.00;100228.08;1672427;84;25836;-80
2021/12/31 09:58:13;;;;;;;8.28;6.30;;;;;;;10.08;100.00;100233.86;1681134;84;27468;-80
2021/12/31 10:00:43;;;;;;;8.20;6.60;;;;;;;10.09;100.00;100227.50;1682461;84;25855;-79
2021/12/31 10:03:22;;;;;;;8.57;6.60;;;;;;;10.13;100.00;100231.98;1676065;84;25916;-79
2021/12/31 10:05:51;;;;;;;10.18;7.87;;;;;;;10.15;100.00;100227.27;1685280;84;25527;-79
2021/12/31 10:08:30;;;;;;;8.48;7.47;;;;;;;10.16;100.00;100230.27;1676307;85;25764;-80
2021/12/31 10:11:20;;;;;;;9.10;7.78;;;;;;;10.18;100.00;100231.70;1680183;84;27557;-80
2021/12/31 10:14:02;;;;;;;9.98;8.88;;;;;;;10.20;100.00;100232.88;1704642;84;26507;-80
2021/12/31 10:16:39;;;;;;;10.38;8.28;;;;;;;10.21;100.00;100227.82;1692010;84;25810;-81
2021/12/31 10:19:13;;;;;;;12.47;9.88;;;;;;;10.22;100.00;100229.49;1680042;84;26336;-80
2021/12/31 10:21:47;;;;;;;14.78;10.35;;;;;;;10.26;100.00;100229.42;1679876;84;25785;-80
2021/12/31 10:24:35;;;;;;;34.05;22.70;;;;;;;10.28;100.00;100222.02;1680567;84;28257;-80
2021/12/31 10:27:12;;;;;;;18.40;13.38;;;;;;;10.30;100.00;100226.67;1687947;84;25856;-79
2021/12/31 10:30:05;;;;;;;14.05;11.88;;;;;;;10.31;100.00;100225.66;1685007;84;26133;-79
2021/12/31 10:32:40;;;;;;;16.07;12.05;;;;;;;10.33;100.00;100224.42;1680095;84;25880;-80
2021/12/31 10:35:18;;;;;;;16.70;11.33;;;;;;;10.34;100.00;100222.08;1680198;84;25907;-79
2021/12/31 10:38:01;;;;;;;18.35;13.43;;;;;;;10.35;100.00;100226.39;1683186;84;27499;-79
2021/12/31 10:40:32;;;;;;;21.35;13.22;;;;;;;10.37;100.00;100224.34;1676204;85;25944;-79
2021/12/31 10:43:18;;;;;;;18.15;13.35;;;;;;;10.37;100.00;100224.34;1683956;84;26401;-80
2021/12/31 10:46:05;;;;;;;16.52;13.15;;;;;;;10.37;100.00;100223.00;1680553;84;26599;-80
2021/12/31 10:48:44;;;;;;;17.00;13.13;;;;;;;10.38;100.00;100223.34;1679986;84;26123;-80
2021/12/31 10:51:14;;;;;;;15.25;12.15;;;;;;;10.38;100.00;100222.00;1665741;84;27418;-80
2021/12/31 10:53:44;;;;;;;16.85;12.73;;;;;;;10.40;100.00;100215.10;1683941;84;25861;-80
2021/12/31 10:56:12;;;;;;;21.55;16.90;;;;;;;10.40;100.00;100217.28;1680389;84;26479;-81
2021/12/31 10:58:42;;;;;;;34.40;23.30;;;;;;;10.41;100.00;100209.58;1680087;84;26407;-80
2021/12/31 11:01:14;;;;;;;19.98;13.70;;;;;;;10.43;100.00;100204.85;1674913;84;25780;-81
2021/12/31 11:03:42;;;;;;;32.75;23.00;;;;;;;10.46;100.00;100199.59;1679011;84;27468;-80
2021/12/31 11:06:13;;;;;;;27.45;19.37;;;;;;;10.48;100.00;100193.02;1662257;84;25927;-80
2021/12/31 11:08:47;;;;;;;20.65;16.30;;;;;;;10.50;100.00;100200.34;1682357;84;25865;-80
2021/12/31 11:11:15;;;;;;;23.73;16.40;;;;;;;10.53;100.00;100190.59;1686675;84;26112;-80
2021/12/31 11:13:46;;;;;;;21.57;17.12;;;;;;;10.53;100.00;100187.91;1680218;84;26008;-80
2021/12/31 11:16:14;;;;;;;18.85;14.93;;;;;;;10.54;100.00;100188.21;1666619;84;27519;-80
2021/12/31 11:18:41;;;;;;;16.82;13.65;;;;;;;10.56;100.00;100190.18;1653349;84;25938;-80